sensor_id;sensor_type;location;lat;lon;timestamp;P1;durP1;ratioP1;P2;durP2;ratioP2
21166;SDS011;10741;52.272;9.580;2023-05-08T00:00:22;12.93;;;10.23;;
21166;SDS011;10741;52.272;9.580;2023-05-08T00:02:48;10.50;;;9.50;;
21166;SDS011;10741;52.272;9.580;2023-05-08T00:05:14;10.97;;;9.87;;
21166;SDS011;10741;52.272;9.580;2023-05-08T00:07:40;12.57;;;10.33;;
21166;SDS011;10741;52.272;9.580;2023-05-08T00:10:06;10.83;;;9.73;;
21166;SDS011;10741;52.272;9.580;2023-05-08T00:12:34;12.13;;;9.87;;
21166;SDS011;10741;52.272;9.580;2023-05-08T00:15:00;12.13;;;10.83;;
21166;SDS011;10741;52.272;9.580;2023-05-08T00:17:26;10.93;;;9.83;;
21166;SDS011;10741;52.272;9.580;2023-05-08T00:19:53;11.67;;;10.57;;
21166;SDS011;10741;52.272;9.580;2023-05-08T00:22:19;10.97;;;9.87;;
21166;SDS011;10741;52.272;9.580;2023-05-08T00:24:45;10.07;;;8.83;;
21166;SDS011;10741;52.272;9.580;2023-05-08T00:27:10;11.07;;;9.90;;
21166;SDS011;10741;52.272;9.580;2023-05-08T00:29:36;11.50;;;9.93;;
21166;SDS011;10741;52.272;9.580;2023-05-08T00:32:04;11.67;;;10.30;;
21166;SDS011;10741;52.272;9.580;2023-05-08T00:34:30;12.07;;;10.87;;
21166;SDS011;10741;52.272;9.580;2023-05-08T00:36:56;12.10;;;10.83;;
21166;SDS011;10741;52.272;9.580;2023-05-08T00:39:22;12.87;;;11.27;;
21166;SDS011;10741;52.272;9.580;2023-05-08T00:41:48;13.63;;;11.60;;
21166;SDS011;10741;52.272;9.580;2023-05-08T00:44:13;12.67;;;10.83;;
21166;SDS011;10741;52.272;9.580;2023-05-08T00:46:40;14.40;;;11.63;;
21166;SDS011;10741;52.272;9.580;2023-05-08T00:49:06;12.93;;;11.03;;
21166;SDS011;10741;52.272;9.580;2023-05-08T00:51:38;11.97;;;10.50;;
21166;SDS011;10741;52.272;9.580;2023-05-08T00:54:06;13.60;;;11.33;;
21166;SDS011;10741;52.272;9.580;2023-05-08T00:56:32;12.53;;;11.23;;
21166;SDS011;10741;52.272;9.580;2023-05-08T00:58:59;14.70;;;11.90;;
21166;SDS011;10741;52.272;9.580;2023-05-08T01:01:25;14.23;;;12.03;;
21166;SDS011;10741;52.272;9.580;2023-05-08T01:03:51;14.73;;;12.00;;
21166;SDS011;10741;52.272;9.580;2023-05-08T01:06:17;15.07;;;12.60;;
21166;SDS011;10741;52.272;9.580;2023-05-08T01:08:43;12.37;;;11.07;;
21166;SDS011;10741;52.272;9.580;2023-05-08T01:33:58;14.23;;;12.63;;
21166;SDS011;10741;52.272;9.580;2023-05-08T01:35:55;16.87;;;12.20;;
21166;SDS011;10741;52.272;9.580;2023-05-08T01:41:26;14.90;;;12.67;;
21166;SDS011;10741;52.272;9.580;2023-05-08T01:46:36;14.87;;;12.03;;
21166;SDS011;10741;52.272;9.580;2023-05-08T01:49:11;13.20;;;11.13;;
21166;SDS011;10741;52.272;9.580;2023-05-08T01:51:42;14.07;;;12.43;;
21166;SDS011;10741;52.272;9.580;2023-05-08T01:54:11;13.60;;;12.10;;
21166;SDS011;10741;52.272;9.580;2023-05-08T01:56:43;14.23;;;11.63;;
21166;SDS011;10741;52.272;9.580;2023-05-08T01:59:12;17.97;;;12.50;;
21166;SDS011;10741;52.272;9.580;2023-05-08T02:01:41;13.80;;;12.40;;
21166;SDS011;10741;52.272;9.580;2023-05-08T02:04:08;13.87;;;11.67;;
21166;SDS011;10741;52.272;9.580;2023-05-08T02:06:36;15.97;;;13.90;;
21166;SDS011;10741;52.272;9.580;2023-05-08T02:09:04;15.73;;;12.97;;
21166;SDS011;10741;52.272;9.580;2023-05-08T02:11:32;15.27;;;12.80;;
21166;SDS011;10741;52.272;9.580;2023-05-08T02:14:00;16.47;;;12.53;;
21166;SDS011;10741;52.272;9.580;2023-05-08T02:16:27;13.83;;;12.33;;
21166;SDS011;10741;52.272;9.580;2023-05-08T02:18:56;13.00;;;11.37;;
21166;SDS011;10741;52.272;9.580;2023-05-08T02:21:24;15.43;;;12.83;;
21166;SDS011;10741;52.272;9.580;2023-05-08T02:23:51;12.70;;;11.40;;
21166;SDS011;10741;52.272;9.580;2023-05-08T02:26:20;13.40;;;11.77;;
21166;SDS011;10741;52.272;9.580;2023-05-08T02:28:48;16.03;;;12.80;;
21166;SDS011;10741;52.272;9.580;2023-05-08T02:31:15;13.77;;;12.13;;
21166;SDS011;10741;52.272;9.580;2023-05-08T02:33:43;13.37;;;11.93;;
21166;SDS011;10741;52.272;9.580;2023-05-08T02:36:09;14.17;;;12.67;;
21166;SDS011;10741;52.272;9.580;2023-05-08T02:38:38;13.67;;;11.53;;
21166;SDS011;10741;52.272;9.580;2023-05-08T02:41:08;16.67;;;13.27;;
21166;SDS011;10741;52.272;9.580;2023-05-08T02:43:36;16.03;;;12.67;;
21166;SDS011;10741;52.272;9.580;2023-05-08T02:54:24;14.47;;;11.70;;
21166;SDS011;10741;52.272;9.580;2023-05-08T02:57:07;14.00;;;12.43;;
21166;SDS011;10741;52.272;9.580;2023-05-08T02:59:44;13.80;;;12.37;;
21166;SDS011;10741;52.272;9.580;2023-05-08T03:02:17;15.63;;;12.97;;
21166;SDS011;10741;52.272;9.580;2023-05-08T03:05:05;14.30;;;12.30;;
21166;SDS011;10741;52.272;9.580;2023-05-08T03:07:44;13.27;;;11.93;;
21166;SDS011;10741;52.272;9.580;2023-05-08T03:10:14;16.13;;;12.23;;
21166;SDS011;10741;52.272;9.580;2023-05-08T03:12:45;13.77;;;12.27;;
21166;SDS011;10741;52.272;9.580;2023-05-08T03:15:23;15.63;;;12.97;;
21166;SDS011;10741;52.272;9.580;2023-05-08T03:18:05;13.33;;;11.70;;
21166;SDS011;10741;52.272;9.580;2023-05-08T03:20:34;15.87;;;12.07;;
21166;SDS011;10741;52.272;9.580;2023-05-08T03:23:03;14.83;;;11.57;;
21166;SDS011;10741;52.272;9.580;2023-05-08T03:25:32;13.90;;;11.67;;
21166;SDS011;10741;52.272;9.580;2023-05-08T03:28:00;13.80;;;11.83;;
21166;SDS011;10741;52.272;9.580;2023-05-08T03:30:28;13.10;;;11.70;;
21166;SDS011;10741;52.272;9.580;2023-05-08T03:32:56;14.53;;;12.27;;
21166;SDS011;10741;52.272;9.580;2023-05-08T03:35:23;14.70;;;12.20;;
21166;SDS011;10741;52.272;9.580;2023-05-08T03:37:51;13.10;;;11.70;;
21166;SDS011;10741;52.272;9.580;2023-05-08T03:40:17;13.40;;;11.53;;
21166;SDS011;10741;52.272;9.580;2023-05-08T03:42:44;13.13;;;11.73;;
21166;SDS011;10741;52.272;9.580;2023-05-08T03:45:11;13.03;;;11.73;;
21166;SDS011;10741;52.272;9.580;2023-05-08T03:47:38;13.47;;;11.77;;
21166;SDS011;10741;52.272;9.580;2023-05-08T03:50:05;13.40;;;12.00;;
21166;SDS011;10741;52.272;9.580;2023-05-08T03:52:33;14.57;;;12.10;;
21166;SDS011;10741;52.272;9.580;2023-05-08T03:54:58;14.37;;;12.07;;
21166;SDS011;10741;52.272;9.580;2023-05-08T03:57:26;12.57;;;11.07;;
21166;SDS011;10741;52.272;9.580;2023-05-08T04:02:35;14.50;;;12.00;;
21166;SDS011;10741;52.272;9.580;2023-05-08T04:05:19;13.30;;;11.60;;
21166;SDS011;10741;52.272;9.580;2023-05-08T04:07:55;12.63;;;11.30;;
21166;SDS011;10741;52.272;9.580;2023-05-08T04:10:32;13.83;;;11.97;;
21166;SDS011;10741;52.272;9.580;2023-05-08T04:13:13;14.30;;;12.00;;
21166;SDS011;10741;52.272;9.580;2023-05-08T04:15:44;13.33;;;11.93;;
21166;SDS011;10741;52.272;9.580;2023-05-08T04:18:21;13.10;;;11.80;;
21166;SDS011;10741;52.272;9.580;2023-05-08T04:21:00;13.27;;;11.93;;
21166;SDS011;10741;52.272;9.580;2023-05-08T04:23:32;13.10;;;11.70;;
21166;SDS011;10741;52.272;9.580;2023-05-08T04:26:00;12.87;;;11.40;;
21166;SDS011;10741;52.272;9.580;2023-05-08T04:28:27;13.20;;;11.20;;
21166;SDS011;10741;52.272;9.580;2023-05-08T04:30:54;13.03;;;11.60;;
21166;SDS011;10741;52.272;9.580;2023-05-08T04:33:20;13.57;;;11.27;;
21166;SDS011;10741;52.272;9.580;2023-05-08T04:35:47;13.67;;;11.50;;
21166;SDS011;10741;52.272;9.580;2023-05-08T04:38:13;12.73;;;11.43;;
21166;SDS011;10741;52.272;9.580;2023-05-08T04:40:39;13.63;;;12.23;;
21166;SDS011;10741;52.272;9.580;2023-05-08T04:43:04;11.57;;;10.47;;
21166;SDS011;10741;52.272;9.580;2023-05-08T04:45:30;14.63;;;11.67;;
21166;SDS011;10741;52.272;9.580;2023-05-08T04:47:56;15.00;;;11.70;;
21166;SDS011;10741;52.272;9.580;2023-05-08T04:50:22;14.00;;;12.07;;
21166;SDS011;10741;52.272;9.580;2023-05-08T04:52:47;15.67;;;11.53;;
21166;SDS011;10741;52.272;9.580;2023-05-08T04:55:13;12.10;;;10.90;;
21166;SDS011;10741;52.272;9.580;2023-05-08T04:57:39;12.10;;;10.90;;
21166;SDS011;10741;52.272;9.580;2023-05-08T05:00:05;13.93;;;10.90;;
21166;SDS011;10741;52.272;9.580;2023-05-08T05:02:31;13.50;;;11.03;;
21166;SDS011;10741;52.272;9.580;2023-05-08T05:04:57;12.10;;;10.90;;
21166;SDS011;10741;52.272;9.580;2023-05-08T05:07:25;12.87;;;11.10;;
21166;SDS011;10741;52.272;9.580;2023-05-08T05:09:51;12.87;;;11.43;;
21166;SDS011;10741;52.272;9.580;2023-05-08T05:12:16;12.17;;;10.83;;
21166;SDS011;10741;52.272;9.580;2023-05-08T05:14:42;13.20;;;10.97;;
21166;SDS011;10741;52.272;9.580;2023-05-08T05:17:08;12.53;;;11.07;;
21166;SDS011;10741;52.272;9.580;2023-05-08T05:19:33;11.80;;;10.57;;
21166;SDS011;10741;52.272;9.580;2023-05-08T05:21:59;12.33;;;10.80;;
21166;SDS011;10741;52.272;9.580;2023-05-08T05:24:25;12.60;;;11.30;;
21166;SDS011;10741;52.272;9.580;2023-05-08T05:26:51;12.47;;;11.10;;
21166;SDS011;10741;52.272;9.580;2023-05-08T05:29:17;12.23;;;10.80;;
21166;SDS011;10741;52.272;9.580;2023-05-08T05:31:43;13.57;;;11.43;;
21166;SDS011;10741;52.272;9.580;2023-05-08T05:34:09;12.73;;;10.47;;
21166;SDS011;10741;52.272;9.580;2023-05-08T05:36:34;13.27;;;11.87;;
21166;SDS011;10741;52.272;9.580;2023-05-08T05:39:00;13.10;;;11.30;;
21166;SDS011;10741;52.272;9.580;2023-05-08T05:41:27;11.80;;;10.70;;
21166;SDS011;10741;52.272;9.580;2023-05-08T05:43:53;12.23;;;10.97;;
21166;SDS011;10741;52.272;9.580;2023-05-08T05:46:18;12.30;;;11.10;;
21166;SDS011;10741;52.272;9.580;2023-05-08T05:48:44;12.87;;;11.63;;
21166;SDS011;10741;52.272;9.580;2023-05-08T05:51:10;13.67;;;11.07;;
21166;SDS011;10741;52.272;9.580;2023-05-08T05:53:37;12.30;;;11.00;;
21166;SDS011;10741;52.272;9.580;2023-05-08T05:56:02;11.33;;;10.13;;
21166;SDS011;10741;52.272;9.580;2023-05-08T05:58:28;12.17;;;10.87;;
21166;SDS011;10741;52.272;9.580;2023-05-08T06:00:54;12.63;;;10.80;;
21166;SDS011;10741;52.272;9.580;2023-05-08T06:03:22;12.13;;;11.00;;
21166;SDS011;10741;52.272;9.580;2023-05-08T06:05:47;12.47;;;10.83;;
21166;SDS011;10741;52.272;9.580;2023-05-08T06:08:13;13.37;;;10.73;;
21166;SDS011;10741;52.272;9.580;2023-05-08T06:10:41;12.90;;;10.63;;
21166;SDS011;10741;52.272;9.580;2023-05-08T06:13:07;11.90;;;10.70;;
21166;SDS011;10741;52.272;9.580;2023-05-08T06:15:33;10.77;;;9.73;;
21166;SDS011;10741;52.272;9.580;2023-05-08T06:17:59;11.57;;;10.47;;
21166;SDS011;10741;52.272;9.580;2023-05-08T06:20:25;11.87;;;10.77;;
21166;SDS011;10741;52.272;9.580;2023-05-08T06:22:51;12.30;;;10.23;;
21166;SDS011;10741;52.272;9.580;2023-05-08T06:25:17;14.70;;;10.83;;
21166;SDS011;10741;52.272;9.580;2023-05-08T06:27:43;11.87;;;10.67;;
21166;SDS011;10741;52.272;9.580;2023-05-08T06:30:09;11.17;;;10.17;;
21166;SDS011;10741;52.272;9.580;2023-05-08T06:32:35;11.77;;;10.57;;
21166;SDS011;10741;52.272;9.580;2023-05-08T06:35:01;11.27;;;10.07;;
21166;SDS011;10741;52.272;9.580;2023-05-08T06:37:27;11.97;;;10.77;;
21166;SDS011;10741;52.272;9.580;2023-05-08T06:39:53;11.57;;;9.73;;
21166;SDS011;10741;52.272;9.580;2023-05-08T06:42:19;11.00;;;9.90;;
21166;SDS011;10741;52.272;9.580;2023-05-08T06:44:45;11.93;;;10.03;;
21166;SDS011;10741;52.272;9.580;2023-05-08T06:47:10;12.30;;;10.53;;
21166;SDS011;10741;52.272;9.580;2023-05-08T06:49:36;10.33;;;9.20;;
21166;SDS011;10741;52.272;9.580;2023-05-08T06:52:02;10.33;;;9.23;;
21166;SDS011;10741;52.272;9.580;2023-05-08T06:54:28;9.73;;;8.80;;
21166;SDS011;10741;52.272;9.580;2023-05-08T06:56:53;10.87;;;9.83;;
21166;SDS011;10741;52.272;9.580;2023-05-08T06:59:20;10.60;;;9.57;;
21166;SDS011;10741;52.272;9.580;2023-05-08T07:01:48;10.63;;;9.53;;
21166;SDS011;10741;52.272;9.580;2023-05-08T07:04:14;10.73;;;9.73;;
21166;SDS011;10741;52.272;9.580;2023-05-08T07:06:39;10.90;;;9.77;;
21166;SDS011;10741;52.272;9.580;2023-05-08T07:09:05;10.40;;;9.40;;
21166;SDS011;10741;52.272;9.580;2023-05-08T07:11:31;10.50;;;9.47;;
21166;SDS011;10741;52.272;9.580;2023-05-08T07:13:56;10.40;;;9.23;;
21166;SDS011;10741;52.272;9.580;2023-05-08T07:16:22;10.67;;;9.57;;
21166;SDS011;10741;52.272;9.580;2023-05-08T07:18:48;10.07;;;9.07;;
21166;SDS011;10741;52.272;9.580;2023-05-08T07:21:14;10.47;;;9.43;;
21166;SDS011;10741;52.272;9.580;2023-05-08T07:23:42;10.23;;;9.23;;
21166;SDS011;10741;52.272;9.580;2023-05-08T07:26:07;10.53;;;9.17;;
21166;SDS011;10741;52.272;9.580;2023-05-08T07:28:33;11.87;;;9.67;;
21166;SDS011;10741;52.272;9.580;2023-05-08T07:30:59;10.57;;;9.57;;
21166;SDS011;10741;52.272;9.580;2023-05-08T07:33:29;10.00;;;8.77;;
21166;SDS011;10741;52.272;9.580;2023-05-08T07:35:54;10.67;;;9.30;;
21166;SDS011;10741;52.272;9.580;2023-05-08T07:38:20;10.00;;;9.00;;
21166;SDS011;10741;52.272;9.580;2023-05-08T07:40:46;10.07;;;9.10;;
21166;SDS011;10741;52.272;9.580;2023-05-08T07:43:13;10.40;;;9.40;;
21166;SDS011;10741;52.272;9.580;2023-05-08T07:45:39;9.73;;;8.83;;
21166;SDS011;10741;52.272;9.580;2023-05-08T07:48:04;10.07;;;9.03;;
21166;SDS011;10741;52.272;9.580;2023-05-08T07:50:31;9.73;;;8.80;;
21166;SDS011;10741;52.272;9.580;2023-05-08T07:52:57;9.80;;;8.80;;
21166;SDS011;10741;52.272;9.580;2023-05-08T07:55:22;10.17;;;9.23;;
21166;SDS011;10741;52.272;9.580;2023-05-08T07:57:48;9.70;;;8.80;;
21166;SDS011;10741;52.272;9.580;2023-05-08T08:00:14;9.43;;;8.43;;
21166;SDS011;10741;52.272;9.580;2023-05-08T08:02:41;9.70;;;8.73;;
21166;SDS011;10741;52.272;9.580;2023-05-08T08:05:07;9.37;;;8.47;;
21166;SDS011;10741;52.272;9.580;2023-05-08T08:07:33;8.83;;;8.03;;
21166;SDS011;10741;52.272;9.580;2023-05-08T08:09:59;8.97;;;8.17;;
21166;SDS011;10741;52.272;9.580;2023-05-08T08:12:26;9.07;;;8.17;;
21166;SDS011;10741;52.272;9.580;2023-05-08T08:14:52;8.77;;;7.97;;
21166;SDS011;10741;52.272;9.580;2023-05-08T08:17:18;8.70;;;7.80;;
21166;SDS011;10741;52.272;9.580;2023-05-08T08:19:44;8.73;;;7.90;;
21166;SDS011;10741;52.272;9.580;2023-05-08T08:22:10;8.90;;;8.10;;
21166;SDS011;10741;52.272;9.580;2023-05-08T08:24:37;9.03;;;8.13;;
21166;SDS011;10741;52.272;9.580;2023-05-08T08:27:03;9.63;;;8.00;;
21166;SDS011;10741;52.272;9.580;2023-05-08T08:29:29;8.37;;;7.57;;
21166;SDS011;10741;52.272;9.580;2023-05-08T08:31:55;8.87;;;7.97;;
21166;SDS011;10741;52.272;9.580;2023-05-08T08:34:21;7.70;;;7.00;;
21166;SDS011;10741;52.272;9.580;2023-05-08T08:36:47;8.53;;;7.67;;
21166;SDS011;10741;52.272;9.580;2023-05-08T08:39:13;8.20;;;7.40;;
21166;SDS011;10741;52.272;9.580;2023-05-08T08:41:40;9.00;;;8.17;;
21166;SDS011;10741;52.272;9.580;2023-05-08T08:44:06;8.73;;;7.83;;
21166;SDS011;10741;52.272;9.580;2023-05-08T08:46:32;8.57;;;7.77;;
21166;SDS011;10741;52.272;9.580;2023-05-08T08:49:00;9.23;;;8.33;;
21166;SDS011;10741;52.272;9.580;2023-05-08T08:51:30;8.97;;;8.17;;
21166;SDS011;10741;52.272;9.580;2023-05-08T08:54:02;9.00;;;8.10;;
21166;SDS011;10741;52.272;9.580;2023-05-08T08:56:39;10.40;;;9.07;;
21166;SDS011;10741;52.272;9.580;2023-05-08T08:59:07;9.70;;;8.80;;
21166;SDS011;10741;52.272;9.580;2023-05-08T09:01:34;9.23;;;8.43;;
21166;SDS011;10741;52.272;9.580;2023-05-08T09:04:01;9.93;;;8.60;;
21166;SDS011;10741;52.272;9.580;2023-05-08T09:06:27;9.53;;;8.63;;
21166;SDS011;10741;52.272;9.580;2023-05-08T09:08:56;9.43;;;8.53;;
21166;SDS011;10741;52.272;9.580;2023-05-08T09:11:23;10.43;;;9.47;;
21166;SDS011;10741;52.272;9.580;2023-05-08T09:13:49;10.33;;;9.43;;
21166;SDS011;10741;52.272;9.580;2023-05-08T09:16:15;9.37;;;8.47;;
21166;SDS011;10741;52.272;9.580;2023-05-08T09:18:42;9.33;;;8.43;;
21166;SDS011;10741;52.272;9.580;2023-05-08T09:21:08;10.80;;;9.80;;
21166;SDS011;10741;52.272;9.580;2023-05-08T09:23:52;10.93;;;9.83;;
21166;SDS011;10741;52.272;9.580;2023-05-08T09:26:26;9.87;;;8.90;;
21166;SDS011;10741;52.272;9.580;2023-05-08T09:29:06;10.30;;;9.30;;
21166;SDS011;10741;52.272;9.580;2023-05-08T09:31:45;9.97;;;9.07;;
21166;SDS011;10741;52.272;9.580;2023-05-08T09:36:55;10.50;;;9.50;;
21166;SDS011;10741;52.272;9.580;2023-05-08T09:39:36;10.93;;;9.90;;
21166;SDS011;10741;52.272;9.580;2023-05-08T09:42:05;10.73;;;9.63;;
21166;SDS011;10741;52.272;9.580;2023-05-08T09:47:20;10.90;;;9.90;;
21166;SDS011;10741;52.272;9.580;2023-05-08T09:52:22;10.43;;;9.33;;
21166;SDS011;10741;52.272;9.580;2023-05-08T09:54:58;10.00;;;9.10;;
21166;SDS011;10741;52.272;9.580;2023-05-08T09:57:27;10.03;;;9.03;;
21166;SDS011;10741;52.272;9.580;2023-05-08T10:00:15;9.97;;;8.93;;
21166;SDS011;10741;52.272;9.580;2023-05-08T10:02:41;10.17;;;9.10;;
21166;SDS011;10741;52.272;9.580;2023-05-08T10:07:52;10.03;;;9.13;;
21166;SDS011;10741;52.272;9.580;2023-05-08T10:12:52;10.07;;;8.97;;
21166;SDS011;10741;52.272;9.580;2023-05-08T10:15:19;10.67;;;9.10;;
21166;SDS011;10741;52.272;9.580;2023-05-08T10:17:56;9.87;;;8.43;;
21166;SDS011;10741;52.272;9.580;2023-05-08T10:20:29;10.13;;;9.10;;
21166;SDS011;10741;52.272;9.580;2023-05-08T10:22:56;9.90;;;9.00;;
21166;SDS011;10741;52.272;9.580;2023-05-08T10:25:23;8.67;;;7.87;;
21166;SDS011;10741;52.272;9.580;2023-05-08T10:30:30;8.83;;;7.93;;
21166;SDS011;10741;52.272;9.580;2023-05-08T10:32:58;8.90;;;8.10;;
21166;SDS011;10741;52.272;9.580;2023-05-08T10:35:32;9.30;;;8.37;;
21166;SDS011;10741;52.272;9.580;2023-05-08T10:37:59;8.60;;;7.80;;
21166;SDS011;10741;52.272;9.580;2023-05-08T10:40:25;9.53;;;7.93;;
21166;SDS011;10741;52.272;9.580;2023-05-08T10:42:51;9.57;;;8.20;;
21166;SDS011;10741;52.272;9.580;2023-05-08T10:45:16;9.47;;;8.20;;
21166;SDS011;10741;52.272;9.580;2023-05-08T10:56:10;8.33;;;7.53;;
21166;SDS011;10741;52.272;9.580;2023-05-08T10:58:36;8.87;;;8.07;;
21166;SDS011;10741;52.272;9.580;2023-05-08T11:03:32;9.73;;;8.63;;
21166;SDS011;10741;52.272;9.580;2023-05-08T11:06:08;8.50;;;7.70;;
21166;SDS011;10741;52.272;9.580;2023-05-08T11:08:42;8.93;;;8.13;;
21166;SDS011;10741;52.272;9.580;2023-05-08T11:11:19;8.33;;;7.07;;
21166;SDS011;10741;52.272;9.580;2023-05-08T11:13:47;8.47;;;7.67;;
21166;SDS011;10741;52.272;9.580;2023-05-08T11:16:17;8.13;;;7.43;;
21166;SDS011;10741;52.272;9.580;2023-05-08T11:19:21;8.00;;;7.03;;
21166;SDS011;10741;52.272;9.580;2023-05-08T11:24:36;9.50;;;7.60;;
21166;SDS011;10741;52.272;9.580;2023-05-08T11:27:03;10.37;;;8.00;;
21166;SDS011;10741;52.272;9.580;2023-05-08T11:29:29;13.43;;;9.47;;
21166;SDS011;10741;52.272;9.580;2023-05-08T11:31:54;9.30;;;8.40;;
21166;SDS011;10741;52.272;9.580;2023-05-08T11:37:18;10.20;;;8.83;;
21166;SDS011;10741;52.272;9.580;2023-05-08T11:39:48;9.40;;;8.50;;
21166;SDS011;10741;52.272;9.580;2023-05-08T11:45:08;11.57;;;10.37;;
21166;SDS011;10741;52.272;9.580;2023-05-08T11:47:41;10.70;;;9.70;;
21166;SDS011;10741;52.272;9.580;2023-05-08T11:50:08;9.60;;;8.70;;
21166;SDS011;10741;52.272;9.580;2023-05-08T11:52:36;9.67;;;8.67;;
21166;SDS011;10741;52.272;9.580;2023-05-08T11:55:06;9.83;;;8.93;;
21166;SDS011;10741;52.272;9.580;2023-05-08T11:57:33;10.60;;;9.60;;
21166;SDS011;10741;52.272;9.580;2023-05-08T12:00:03;9.97;;;9.07;;
21166;SDS011;10741;52.272;9.580;2023-05-08T12:02:36;9.53;;;8.60;;
21166;SDS011;10741;52.272;9.580;2023-05-08T12:05:06;9.93;;;9.03;;
21166;SDS011;10741;52.272;9.580;2023-05-08T12:07:32;10.33;;;9.37;;
21166;SDS011;10741;52.272;9.580;2023-05-08T12:10:07;11.50;;;9.87;;
21166;SDS011;10741;52.272;9.580;2023-05-08T12:12:37;11.47;;;10.37;;
21166;SDS011;10741;52.272;9.580;2023-05-08T12:15:09;10.50;;;9.50;;
21166;SDS011;10741;52.272;9.580;2023-05-08T12:17:37;11.07;;;9.40;;
21166;SDS011;10741;52.272;9.580;2023-05-08T12:22:42;10.00;;;9.20;;
21166;SDS011;10741;52.272;9.580;2023-05-08T12:25:15;10.53;;;9.53;;
21166;SDS011;10741;52.272;9.580;2023-05-08T12:27:42;10.23;;;9.23;;
21166;SDS011;10741;52.272;9.580;2023-05-08T12:30:09;11.27;;;9.47;;
21166;SDS011;10741;52.272;9.580;2023-05-08T12:32:38;10.57;;;8.73;;
21166;SDS011;10741;52.272;9.580;2023-05-08T12:35:06;9.77;;;8.97;;
21166;SDS011;10741;52.272;9.580;2023-05-08T12:37:32;9.90;;;9.00;;
21166;SDS011;10741;52.272;9.580;2023-05-08T12:39:58;9.03;;;8.20;;
21166;SDS011;10741;52.272;9.580;2023-05-08T12:45:24;7.93;;;7.20;;
21166;SDS011;10741;52.272;9.580;2023-05-08T12:47:52;8.33;;;7.47;;
21166;SDS011;10741;52.272;9.580;2023-05-08T12:50:23;9.00;;;8.13;;
21166;SDS011;10741;52.272;9.580;2023-05-08T12:52:50;8.50;;;7.73;;
21166;SDS011;10741;52.272;9.580;2023-05-08T12:55:20;11.30;;;6.97;;
21166;SDS011;10741;52.272;9.580;2023-05-08T12:57:57;9.20;;;7.03;;
21166;SDS011;10741;52.272;9.580;2023-05-08T13:00:23;8.20;;;7.50;;
21166;SDS011;10741;52.272;9.580;2023-05-08T13:02:53;7.90;;;7.10;;
21166;SDS011;10741;52.272;9.580;2023-05-08T13:05:19;7.43;;;6.70;;
21166;SDS011;10741;52.272;9.580;2023-05-08T13:07:46;7.23;;;6.60;;
21166;SDS011;10741;52.272;9.580;2023-05-08T13:10:13;7.73;;;6.43;;
21166;SDS011;10741;52.272;9.580;2023-05-08T13:12:40;7.80;;;6.57;;
21166;SDS011;10741;52.272;9.580;2023-05-08T13:15:06;7.77;;;7.10;;
21166;SDS011;10741;52.272;9.580;2023-05-08T13:17:32;8.20;;;6.80;;
21166;SDS011;10741;52.272;9.580;2023-05-08T13:19:58;7.50;;;6.90;;
21166;SDS011;10741;52.272;9.580;2023-05-08T13:22:23;7.00;;;6.30;;
21166;SDS011;10741;52.272;9.580;2023-05-08T13:24:53;7.30;;;6.60;;
21166;SDS011;10741;52.272;9.580;2023-05-08T13:27:19;6.80;;;6.20;;
21166;SDS011;10741;52.272;9.580;2023-05-08T13:29:45;6.70;;;6.00;;
21166;SDS011;10741;52.272;9.580;2023-05-08T13:32:11;6.67;;;6.10;;
21166;SDS011;10741;52.272;9.580;2023-05-08T13:34:37;6.47;;;5.87;;
21166;SDS011;10741;52.272;9.580;2023-05-08T13:37:03;8.67;;;6.80;;
21166;SDS011;10741;52.272;9.580;2023-05-08T13:39:34;6.77;;;6.07;;
21166;SDS011;10741;52.272;9.580;2023-05-08T13:42:01;10.57;;;6.43;;
21166;SDS011;10741;52.272;9.580;2023-05-08T13:44:28;6.03;;;5.53;;
21166;SDS011;10741;52.272;9.580;2023-05-08T13:46:53;7.47;;;5.37;;
21166;SDS011;10741;52.272;9.580;2023-05-08T13:49:19;6.70;;;6.00;;
21166;SDS011;10741;52.272;9.580;2023-05-08T13:51:48;5.90;;;5.40;;
21166;SDS011;10741;52.272;9.580;2023-05-08T13:54:14;6.83;;;5.93;;
21166;SDS011;10741;52.272;9.580;2023-05-08T13:56:40;6.10;;;5.60;;
21166;SDS011;10741;52.272;9.580;2023-05-08T13:59:06;5.87;;;5.37;;
21166;SDS011;10741;52.272;9.580;2023-05-08T14:01:32;6.07;;;5.40;;
21166;SDS011;10741;52.272;9.580;2023-05-08T14:03:57;5.53;;;5.10;;
21166;SDS011;10741;52.272;9.580;2023-05-08T14:06:23;6.07;;;5.03;;
21166;SDS011;10741;52.272;9.580;2023-05-08T14:08:49;6.13;;;5.63;;
21166;SDS011;10741;52.272;9.580;2023-05-08T14:11:15;6.77;;;5.70;;
21166;SDS011;10741;52.272;9.580;2023-05-08T14:13:40;6.43;;;5.83;;
21166;SDS011;10741;52.272;9.580;2023-05-08T14:16:06;8.13;;;6.17;;
21166;SDS011;10741;52.272;9.580;2023-05-08T14:18:34;8.67;;;5.40;;
21166;SDS011;10741;52.272;9.580;2023-05-08T14:21:00;8.43;;;5.83;;
21166;SDS011;10741;52.272;9.580;2023-05-08T14:23:25;6.13;;;5.53;;
21166;SDS011;10741;52.272;9.580;2023-05-08T14:25:52;6.67;;;5.47;;
21166;SDS011;10741;52.272;9.580;2023-05-08T14:28:17;5.87;;;5.30;;
21166;SDS011;10741;52.272;9.580;2023-05-08T14:30:43;6.70;;;6.10;;
21166;SDS011;10741;52.272;9.580;2023-05-08T14:33:09;6.27;;;5.43;;
21166;SDS011;10741;52.272;9.580;2023-05-08T14:35:35;7.30;;;5.47;;
21166;SDS011;10741;52.272;9.580;2023-05-08T14:38:00;5.70;;;5.20;;
21166;SDS011;10741;52.272;9.580;2023-05-08T14:40:26;8.17;;;6.07;;
21166;SDS011;10741;52.272;9.580;2023-05-08T14:42:52;7.77;;;6.13;;
21166;SDS011;10741;52.272;9.580;2023-05-08T14:45:17;5.70;;;5.23;;
21166;SDS011;10741;52.272;9.580;2023-05-08T14:47:43;6.77;;;6.17;;
21166;SDS011;10741;52.272;9.580;2023-05-08T14:50:09;7.57;;;6.97;;
21166;SDS011;10741;52.272;9.580;2023-05-08T14:52:35;6.47;;;5.97;;
21166;SDS011;10741;52.272;9.580;2023-05-08T14:55:01;6.53;;;5.83;;
21166;SDS011;10741;52.272;9.580;2023-05-08T14:57:27;6.23;;;5.67;;
21166;SDS011;10741;52.272;9.580;2023-05-08T14:59:52;6.17;;;5.67;;
21166;SDS011;10741;52.272;9.580;2023-05-08T15:02:20;6.80;;;6.20;;
21166;SDS011;10741;52.272;9.580;2023-05-08T15:04:46;7.53;;;6.83;;
21166;SDS011;10741;52.272;9.580;2023-05-08T15:07:12;8.20;;;7.47;;
21166;SDS011;10741;52.272;9.580;2023-05-08T15:09:41;7.93;;;7.13;;
21166;SDS011;10741;52.272;9.580;2023-05-08T15:12:06;7.43;;;6.83;;
21166;SDS011;10741;52.272;9.580;2023-05-08T15:14:32;7.47;;;6.77;;
21166;SDS011;10741;52.272;9.580;2023-05-08T15:16:58;8.53;;;7.83;;
21166;SDS011;10741;52.272;9.580;2023-05-08T15:19:23;9.10;;;8.20;;
21166;SDS011;10741;52.272;9.580;2023-05-08T15:21:49;8.30;;;7.50;;
21166;SDS011;10741;52.272;9.580;2023-05-08T15:24:15;6.90;;;6.30;;
21166;SDS011;10741;52.272;9.580;2023-05-08T15:26:41;7.80;;;7.10;;
21166;SDS011;10741;52.272;9.580;2023-05-08T15:29:06;7.70;;;6.53;;
21166;SDS011;10741;52.272;9.580;2023-05-08T15:31:32;9.43;;;7.63;;
21166;SDS011;10741;52.272;9.580;2023-05-08T15:33:58;8.07;;;7.47;;
21166;SDS011;10741;52.272;9.580;2023-05-08T15:36:23;8.40;;;7.70;;
21166;SDS011;10741;52.272;9.580;2023-05-08T15:38:50;7.33;;;6.70;;
21166;SDS011;10741;52.272;9.580;2023-05-08T15:41:17;9.80;;;7.67;;
21166;SDS011;10741;52.272;9.580;2023-05-08T15:43:43;8.63;;;6.60;;
21166;SDS011;10741;52.272;9.580;2023-05-08T15:46:10;7.63;;;6.43;;
21166;SDS011;10741;52.272;9.580;2023-05-08T15:48:36;6.93;;;6.23;;
21166;SDS011;10741;52.272;9.580;2023-05-08T15:51:01;7.33;;;6.63;;
21166;SDS011;10741;52.272;9.580;2023-05-08T15:53:27;8.17;;;7.37;;
21166;SDS011;10741;52.272;9.580;2023-05-08T15:55:53;7.57;;;6.53;;
21166;SDS011;10741;52.272;9.580;2023-05-08T15:58:20;6.93;;;6.43;;